createdAt,value
2018-08-06T00:10:43.788Z,19.30
2018-08-06T00:13:11.999Z,19.20
2018-08-06T00:15:40.187Z,19.20
2018-08-06T00:18:09.296Z,19.20
2018-08-06T00:20:37.501Z,19.10
2018-08-06T00:23:06.330Z,19.10
2018-08-06T00:25:34.485Z,19.00
2018-08-06T00:28:02.705Z,19.00
2018-08-06T00:30:31.120Z,19.00
2018-08-06T00:33:02.711Z,19.00
2018-08-06T00:35:31.568Z,18.90
2018-08-06T00:37:59.792Z,18.90
2018-08-06T00:40:27.984Z,18.90
2018-08-06T00:42:56.193Z,18.80
2018-08-06T00:45:24.467Z,18.80
2018-08-06T00:47:52.604Z,18.80
2018-08-06T00:50:21.051Z,18.80
2018-08-06T00:52:49.300Z,18.80
2018-08-06T00:55:18.824Z,18.70
2018-08-06T00:57:47.088Z,18.70
2018-08-06T01:00:19.652Z,18.70
2018-08-06T01:02:51.716Z,18.70
2018-08-06T01:05:19.946Z,18.70
2018-08-06T01:07:48.152Z,18.70
2018-08-06T01:10:17.713Z,18.70
2018-08-06T01:12:46.870Z,18.70
2018-08-06T01:15:16.346Z,18.60
2018-08-06T01:17:49.102Z,18.50
2018-08-06T01:20:17.688Z,18.50
2018-08-06T01:22:46.244Z,18.50
2018-08-06T01:25:14.883Z,18.40
2018-08-06T01:30:12.554Z,18.40
2018-08-06T01:32:40.804Z,18.40
2018-08-06T01:35:10.135Z,18.40
2018-08-06T01:37:38.598Z,18.30
2018-08-06T01:40:12.628Z,18.30
2018-08-06T01:42:41.339Z,18.20
2018-08-06T01:45:10.974Z,18.20
2018-08-06T01:47:39.394Z,18.30
2018-08-06T01:50:09.142Z,18.40
2018-08-06T01:52:37.363Z,18.40
2018-08-06T01:55:05.670Z,18.20
2018-08-06T01:57:34.512Z,18.20
2018-08-06T02:00:03.958Z,18.10
2018-08-06T02:02:32.188Z,18.10
2018-08-06T02:05:00.404Z,18.10
2018-08-06T02:07:28.664Z,18.00
2018-08-06T02:09:56.863Z,18.00
2018-08-06T02:12:25.099Z,18.00
2018-08-06T02:14:53.312Z,17.90
2018-08-06T02:17:21.531Z,17.90
2018-08-06T02:19:54.239Z,17.90
2018-08-06T02:22:26.399Z,17.80
2018-08-06T02:24:54.601Z,17.80
2018-08-06T02:27:22.911Z,17.80
2018-08-06T02:29:51.115Z,17.70
2018-08-06T02:32:19.356Z,17.70
2018-08-06T02:37:19.460Z,17.60
2018-08-06T02:39:47.848Z,17.60
2018-08-06T02:42:16.135Z,17.50
2018-08-06T02:44:44.352Z,17.50
2018-08-06T02:47:12.552Z,17.60
2018-08-06T02:49:43.893Z,17.60
2018-08-06T02:52:12.975Z,17.50
2018-08-06T02:54:41.196Z,17.40
2018-08-06T02:57:09.393Z,17.30
2018-08-06T03:02:06.253Z,17.30
2018-08-06T03:04:38.168Z,17.20
2018-08-06T03:07:06.359Z,17.20
2018-08-06T03:09:35.528Z,17.30
2018-08-06T03:12:04.363Z,17.30
2018-08-06T03:14:33.147Z,17.30
2018-08-06T03:17:01.370Z,17.30
2018-08-06T03:19:29.664Z,17.30
2018-08-06T03:21:58.747Z,17.20
2018-08-06T03:24:26.910Z,17.10
2018-08-06T03:26:55.123Z,17.10
2018-08-06T03:29:23.462Z,17.10
2018-08-06T03:31:52.600Z,17.00
2018-08-06T03:34:20.786Z,17.10
2018-08-06T03:36:48.959Z,17.00
2018-08-06T03:39:17.160Z,17.00
2018-08-06T03:41:45.365Z,17.00
2018-08-06T03:44:13.563Z,16.90
2018-08-06T03:46:42.192Z,16.90
2018-08-06T03:49:10.433Z,16.90
2018-08-06T03:51:42.851Z,16.90
2018-08-06T03:54:11.159Z,16.90
2018-08-06T03:56:39.396Z,16.90
2018-08-06T03:59:09.005Z,16.90
2018-08-06T04:01:37.255Z,16.80
2018-08-06T04:04:06.175Z,16.80
2018-08-06T04:06:34.392Z,16.80
2018-08-06T04:09:07.212Z,16.80
2018-08-06T04:11:35.707Z,16.80
2018-08-06T04:14:03.939Z,16.80
2018-08-06T04:16:38.467Z,16.80
2018-08-06T04:19:07.303Z,16.90
2018-08-06T04:21:38.618Z,16.90
2018-08-06T04:24:07.334Z,17.00
2018-08-06T04:26:36.302Z,17.00
2018-08-06T04:31:33.649Z,17.10
2018-08-06T04:34:02.255Z,17.20
2018-08-06T04:36:35.541Z,17.10
2018-08-06T04:39:05.768Z,17.30
2018-08-06T04:41:34.300Z,18.00
2018-08-06T04:44:02.627Z,19.00
2018-08-06T04:46:31.904Z,20.10
2018-08-06T04:49:01.612Z,21.00
2018-08-06T04:51:33.866Z,21.70
2018-08-06T04:54:02.119Z,22.50
2018-08-06T04:56:30.348Z,23.20
2018-08-06T04:58:58.583Z,23.50
2018-08-06T05:01:26.912Z,23.50
2018-08-06T05:03:55.144Z,23.90
2018-08-06T05:06:23.628Z,24.50
2018-08-06T05:08:55.916Z,25.20
2018-08-06T05:11:24.160Z,25.60
2018-08-06T05:13:52.478Z,25.90
2018-08-06T05:16:20.760Z,26.40
2018-08-06T05:18:49.025Z,26.70
2018-08-06T05:21:17.250Z,26.70
2018-08-06T05:23:55.227Z,26.80
2018-08-06T05:26:24.149Z,26.80
2018-08-06T05:28:53.462Z,27.00
2018-08-06T05:31:23.476Z,27.40
2018-08-06T05:33:52.921Z,28.00
2018-08-06T05:36:22.059Z,28.50
2018-08-06T05:38:51.050Z,28.80
2018-08-06T05:41:19.640Z,29.40
2018-08-06T05:46:16.205Z,29.20
2018-08-06T05:48:44.422Z,28.70
2018-08-06T05:51:13.201Z,28.20
2018-08-06T05:53:44.449Z,28.20
2018-08-06T05:56:12.699Z,28.10
2018-08-06T05:58:41.869Z,27.90
2018-08-06T06:01:10.351Z,27.50
2018-08-06T06:03:38.668Z,27.20
2018-08-06T06:06:07.693Z,27.50
2018-08-06T06:08:36.451Z,28.20
2018-08-06T06:11:05.012Z,29.00
2018-08-06T06:13:33.411Z,29.20
2018-08-06T06:16:01.855Z,29.60
2018-08-06T06:18:30.880Z,29.30
2018-08-06T06:20:59.062Z,29.30
2018-08-06T06:25:56.905Z,28.90
2018-08-06T06:28:25.164Z,28.00
2018-08-06T06:30:53.380Z,26.50
2018-08-06T06:33:21.679Z,25.10
2018-08-06T06:35:49.892Z,24.10
2018-08-06T06:38:18.327Z,23.60
2018-08-06T06:40:47.374Z,23.10
2018-08-06T06:43:15.731Z,22.80
2018-08-06T06:45:45.014Z,22.50
2018-08-06T06:48:14.619Z,22.30
2018-08-06T06:50:42.887Z,22.20
2018-08-06T06:53:11.192Z,22.10
2018-08-06T06:55:39.496Z,22.10
2018-08-06T06:58:08.795Z,22.10
2018-08-06T07:03:06.389Z,22.20
2018-08-06T07:05:34.609Z,22.30
2018-08-06T07:08:02.824Z,22.30
2018-08-06T07:10:32.075Z,22.40
2018-08-06T07:13:00.295Z,22.40
2018-08-06T07:15:28.515Z,22.50
2018-08-06T07:17:57.491Z,22.60
2018-08-06T07:20:26.304Z,22.70
2018-08-06T07:22:54.479Z,22.70
2018-08-06T07:25:26.735Z,22.80
2018-08-06T07:27:54.979Z,22.90
2018-08-06T07:30:23.200Z,22.90
2018-08-06T07:32:51.439Z,23.10
2018-08-06T07:35:19.754Z,23.20
2018-08-06T07:37:48.021Z,23.30
2018-08-06T07:40:17.842Z,23.40
2018-08-06T07:42:47.100Z,23.50
2018-08-06T07:45:17.873Z,23.60
2018-08-06T07:47:46.765Z,23.50
2018-08-06T07:50:19.430Z,23.50
2018-08-06T07:52:48.732Z,23.70
2018-08-06T07:55:17.103Z,23.80
2018-08-06T07:57:46.089Z,23.90
2018-08-06T08:00:16.372Z,24.00
2018-08-06T08:02:44.644Z,24.10
2018-08-06T08:05:14.820Z,24.20
2018-08-06T08:07:45.439Z,24.20
2018-08-06T08:10:16.441Z,24.30
2018-08-06T08:12:45.308Z,24.40
2018-08-06T08:15:16.123Z,24.50
2018-08-06T08:20:15.634Z,24.60
2018-08-06T08:22:44.088Z,24.70
2018-08-06T08:25:17.096Z,24.80
2018-08-06T08:27:46.099Z,24.80
2018-08-06T08:30:15.451Z,24.90
2018-08-06T08:32:43.687Z,24.90
2018-08-06T08:35:13.017Z,25.00
2018-08-06T08:37:41.376Z,25.00
2018-08-06T08:40:12.696Z,25.10
2018-08-06T08:42:42.085Z,25.20
2018-08-06T08:45:14.746Z,25.30
2018-08-06T08:47:44.271Z,25.50
2018-08-06T08:50:14.667Z,25.60
2018-08-06T08:52:43.258Z,25.80
2018-08-06T08:57:42.904Z,25.90
2018-08-06T09:00:13.819Z,25.90
2018-08-06T09:02:43.963Z,26.00
2018-08-06T09:07:41.339Z,26.10
2018-08-06T09:10:11.152Z,26.20
2018-08-06T09:12:39.732Z,26.20
2018-08-06T09:15:14.236Z,26.20
2018-08-06T09:17:42.836Z,26.10
2018-08-06T09:20:11.529Z,26.20
2018-08-06T09:22:40.576Z,26.20
2018-08-06T09:27:39.089Z,26.40
2018-08-06T09:30:09.928Z,26.60
2018-08-06T09:32:40.012Z,26.70
2018-08-06T09:35:08.246Z,26.70
2018-08-06T09:37:36.466Z,26.90
2018-08-06T09:40:08.355Z,27.00
2018-08-06T09:42:36.583Z,27.10
2018-08-06T09:45:06.210Z,27.10
2018-08-06T09:47:34.491Z,27.00
2018-08-06T09:50:03.636Z,27.00
2018-08-06T09:52:31.924Z,27.00
2018-08-06T09:55:00.143Z,26.90
2018-08-06T09:57:29.413Z,26.90
2018-08-06T09:59:57.635Z,27.00
2018-08-06T10:02:26.679Z,27.00
2018-08-06T10:04:55.024Z,27.10
2018-08-06T10:07:24.702Z,27.20
2018-08-06T10:12:25.643Z,27.30
2018-08-06T10:14:54.705Z,27.40
2018-08-06T10:17:22.921Z,27.40
2018-08-06T10:19:54.490Z,27.40
2018-08-06T10:24:51.241Z,27.50
2018-08-06T10:27:22.255Z,27.70
2018-08-06T10:29:53.823Z,27.80
2018-08-06T10:32:22.160Z,27.90
2018-08-06T10:34:50.477Z,27.90
2018-08-06T10:37:18.752Z,28.00
2018-08-06T10:39:46.983Z,28.00
2018-08-06T10:42:19.980Z,28.20
2018-08-06T10:44:48.498Z,28.10
2018-08-06T10:47:17.505Z,28.10
2018-08-06T10:49:46.748Z,28.10
2018-08-06T10:52:14.933Z,28.10
2018-08-06T10:54:43.441Z,28.10
2018-08-06T10:57:12.960Z,28.10
2018-08-06T10:59:41.858Z,28.00
2018-08-06T11:04:38.711Z,28.10
2018-08-06T11:07:07.564Z,28.10
2018-08-06T11:09:35.760Z,28.20
2018-08-06T11:12:04.708Z,28.20
2018-08-06T11:14:39.485Z,28.40
2018-08-06T11:17:09.503Z,28.40
2018-08-06T11:19:38.779Z,28.50
2018-08-06T11:22:07.179Z,28.60
2018-08-06T11:24:35.429Z,28.60
2018-08-06T11:27:03.733Z,28.70
2018-08-06T11:29:35.062Z,28.80
2018-08-06T11:32:03.931Z,28.90
2018-08-06T11:34:32.178Z,28.90
2018-08-06T11:37:00.407Z,28.90
2018-08-06T11:39:28.624Z,28.90
2018-08-06T11:41:57.979Z,29.00
2018-08-06T11:44:26.767Z,29.10
2018-08-06T11:46:54.988Z,29.20
2018-08-06T11:49:23.402Z,29.20
2018-08-06T11:51:51.587Z,29.30
2018-08-06T11:54:19.864Z,29.30
2018-08-06T11:56:50.120Z,29.40
2018-08-06T11:59:18.548Z,29.60
2018-08-06T12:01:47.360Z,29.70
2018-08-06T12:06:43.515Z,29.70
2018-08-06T12:09:11.758Z,29.80
2018-08-06T12:11:40.155Z,29.90
2018-08-06T12:14:08.362Z,30.10
2018-08-06T12:16:36.607Z,30.20
2018-08-06T12:19:04.964Z,30.20
2018-08-06T12:21:33.159Z,30.20
2018-08-06T12:24:01.419Z,30.20
2018-08-06T12:26:29.696Z,30.30
2018-08-06T12:29:00.795Z,30.20
2018-08-06T12:31:29.116Z,30.20
2018-08-06T12:33:57.716Z,30.20
2018-08-06T12:36:25.950Z,30.10
2018-08-06T12:39:01.927Z,30.20
2018-08-06T12:41:30.282Z,30.30
2018-08-06T12:46:26.911Z,30.40
2018-08-06T12:48:55.157Z,30.50
2018-08-06T12:51:23.530Z,30.60
2018-08-06T12:53:51.719Z,30.60
2018-08-06T12:56:19.930Z,30.70
2018-08-06T12:58:48.138Z,30.80
2018-08-06T13:01:16.619Z,30.90
2018-08-06T13:03:44.862Z,31.00
2018-08-06T13:06:13.120Z,31.00
2018-08-06T13:08:41.364Z,31.00
2018-08-06T13:11:09.579Z,31.00
2018-08-06T13:13:37.827Z,31.10
2018-08-06T13:16:06.248Z,31.00
2018-08-06T13:18:34.558Z,31.10
2018-08-06T13:21:02.747Z,31.20
2018-08-06T13:23:31.324Z,31.30
2018-08-06T13:25:59.553Z,31.40
2018-08-06T13:28:27.800Z,31.40
2018-08-06T13:30:59.863Z,31.50
2018-08-06T13:33:28.100Z,31.40
2018-08-06T13:35:57.424Z,31.40
2018-08-06T13:38:25.702Z,31.40
2018-08-06T13:40:54.599Z,31.30
2018-08-06T13:43:22.820Z,31.30
2018-08-06T13:48:24.486Z,31.00
2018-08-06T13:50:52.741Z,30.90
2018-08-06T13:53:20.921Z,30.90
2018-08-06T13:55:49.137Z,31.00
2018-08-06T13:58:17.385Z,31.10
2018-08-06T14:00:49.211Z,31.10
2018-08-06T14:08:13.927Z,31.40
2018-08-06T14:10:42.218Z,31.60
2018-08-06T14:13:11.144Z,31.70
2018-08-06T14:15:39.375Z,31.80
2018-08-06T14:18:07.975Z,31.90
2018-08-06T14:20:36.200Z,31.90
2018-08-06T14:23:04.400Z,31.90
2018-08-06T14:25:32.695Z,32.00
2018-08-06T14:28:00.952Z,32.10
2018-08-06T14:30:29.141Z,32.10
2018-08-06T14:32:57.403Z,32.10
2018-08-06T14:35:30.092Z,32.20
2018-08-06T14:37:58.404Z,32.30
2018-08-06T14:42:55.815Z,32.20
2018-08-06T14:45:24.055Z,32.00
2018-08-06T14:47:52.308Z,31.90
2018-08-06T14:50:20.514Z,31.90
2018-08-06T14:55:17.875Z,32.20
2018-08-06T14:57:46.898Z,32.30
2018-08-06T15:00:18.505Z,32.30
2018-08-06T15:02:47.999Z,32.40
2018-08-06T15:05:16.919Z,32.40
2018-08-06T15:10:13.891Z,32.20
2018-08-06T15:15:12.705Z,32.10
2018-08-06T15:17:44.097Z,32.10
2018-08-06T15:20:14.423Z,32.00
2018-08-06T15:25:15.672Z,31.90
2018-08-06T15:27:43.925Z,31.90
2018-08-06T15:30:12.278Z,31.90
2018-08-06T15:32:44.329Z,31.90
2018-08-06T15:35:13.055Z,31.90
2018-08-06T15:37:42.160Z,32.00
2018-08-06T15:40:12.327Z,32.10
2018-08-06T15:42:40.967Z,32.20
2018-08-06T15:45:10.162Z,32.30
2018-08-06T15:47:41.855Z,32.40
2018-08-06T15:50:15.298Z,32.40
2018-08-06T15:52:43.599Z,32.40
2018-08-06T15:55:11.838Z,32.30
2018-08-06T15:57:40.865Z,32.20
2018-08-06T16:00:10.926Z,32.30
2018-08-06T16:02:39.148Z,32.30
2018-08-06T16:05:16.091Z,32.30
2018-08-06T16:07:44.372Z,32.30
2018-08-06T16:10:13.202Z,32.30
2018-08-06T16:12:43.233Z,32.30
2018-08-06T16:15:13.119Z,32.30
2018-08-06T16:17:42.403Z,32.10
2018-08-06T16:20:12.766Z,32.10
2018-08-06T16:22:41.467Z,32.00
2018-08-06T16:25:11.071Z,31.90
2018-08-06T16:27:39.265Z,31.90
2018-08-06T16:30:13.154Z,31.90
2018-08-06T16:32:42.012Z,31.90
2018-08-06T16:35:10.153Z,32.00
2018-08-06T16:37:38.681Z,32.10
2018-08-06T16:40:07.902Z,32.70
2018-08-06T16:42:36.384Z,34.10
2018-08-06T16:45:05.505Z,35.60
2018-08-06T16:47:34.097Z,36.40
2018-08-06T16:50:02.482Z,36.90
2018-08-06T16:52:30.990Z,37.40
2018-08-06T16:54:59.271Z,37.70
2018-08-06T16:57:29.363Z,38.10
2018-08-06T17:02:27.295Z,38.50
2018-08-06T17:04:58.598Z,38.20
2018-08-06T17:07:26.827Z,38.20
2018-08-06T17:09:55.879Z,38.20
2018-08-06T17:12:24.139Z,38.10
2018-08-06T17:14:52.647Z,38.50
2018-08-06T17:17:20.888Z,38.90
2018-08-06T17:19:53.256Z,39.00
2018-08-06T17:22:21.554Z,39.00
2018-08-06T17:24:49.779Z,38.70
2018-08-06T17:27:18.060Z,38.50
2018-08-06T17:29:46.292Z,38.60
2018-08-06T17:32:14.571Z,38.50
2018-08-06T17:34:48.224Z,38.60
2018-08-06T17:37:16.427Z,38.70
2018-08-06T17:39:44.647Z,38.80
2018-08-06T17:42:17.543Z,38.80
2018-08-06T17:44:45.831Z,38.60
2018-08-06T17:47:14.551Z,38.50
2018-08-06T17:49:49.911Z,38.40
2018-08-06T17:52:18.117Z,38.10
2018-08-06T17:54:46.444Z,37.80
2018-08-06T17:57:14.704Z,37.70
2018-08-06T17:59:42.976Z,37.50
2018-08-06T18:02:11.207Z,37.30
2018-08-06T18:04:46.551Z,37.10
2018-08-06T18:07:14.866Z,37.00
2018-08-06T18:09:43.151Z,36.70
2018-08-06T18:12:12.065Z,36.40
2018-08-06T18:14:40.898Z,36.00
2018-08-06T18:17:09.168Z,35.80
2018-08-06T18:19:41.404Z,35.40
2018-08-06T18:22:09.740Z,35.10
2018-08-06T18:24:37.993Z,34.60
2018-08-06T18:27:07.711Z,34.00
2018-08-06T18:29:36.893Z,33.20
2018-08-06T18:32:05.264Z,32.40
2018-08-06T18:34:33.470Z,31.80
2018-08-06T18:37:04.741Z,31.20
2018-08-06T18:39:33.447Z,30.60
2018-08-06T18:44:30.338Z,29.80
2018-08-06T18:46:58.565Z,29.40
2018-08-06T18:49:27.172Z,29.10
2018-08-06T18:51:58.858Z,28.90
2018-08-06T18:54:27.240Z,28.80
2018-08-06T18:56:55.642Z,28.50
2018-08-06T18:59:23.908Z,28.40
2018-08-06T19:01:52.301Z,28.30
2018-08-06T19:04:21.579Z,28.10
2018-08-06T19:06:49.955Z,27.90
2018-08-06T19:09:19.155Z,27.70
2018-08-06T19:11:47.638Z,27.60
2018-08-06T19:14:21.685Z,27.40
2018-08-06T19:16:51.227Z,27.30
2018-08-06T19:19:24.054Z,27.30
2018-08-06T19:21:53.614Z,27.20
2018-08-06T19:24:27.318Z,27.10
2018-08-06T19:26:55.561Z,27.00
2018-08-06T19:29:25.089Z,26.90
2018-08-06T19:31:53.499Z,26.80
2018-08-06T19:34:22.053Z,26.60
2018-08-06T19:36:55.736Z,26.50
2018-08-06T19:39:23.990Z,26.40
2018-08-06T19:41:52.518Z,26.30
2018-08-06T19:44:21.010Z,26.20
2018-08-06T19:46:49.945Z,26.10
2018-08-06T19:49:23.557Z,26.00
2018-08-06T19:51:55.492Z,25.90
2018-08-06T19:54:23.778Z,25.90
2018-08-06T19:56:52.128Z,25.80
2018-08-06T19:59:21.325Z,25.70
2018-08-06T20:04:17.627Z,25.70
2018-08-06T20:06:49.739Z,25.60
2018-08-06T20:09:17.950Z,25.50
2018-08-06T20:11:46.404Z,25.40
2018-08-06T20:14:14.615Z,25.40
2018-08-06T20:16:42.826Z,25.30
2018-08-06T20:19:11.575Z,25.20
2018-08-06T20:21:39.812Z,25.20
2018-08-06T20:24:08.021Z,25.10
2018-08-06T20:26:37.336Z,25.00
2018-08-06T20:29:06.323Z,25.00
2018-08-06T20:31:35.211Z,24.90
2018-08-06T20:34:03.758Z,24.80
2018-08-06T20:36:32.291Z,24.80
2018-08-06T20:39:02.292Z,24.90
2018-08-06T20:41:30.997Z,24.80
2018-08-06T20:43:59.640Z,24.80
2018-08-06T20:46:28.428Z,24.70
2018-08-06T20:48:56.929Z,24.70
2018-08-06T20:51:26.025Z,24.60
2018-08-06T20:53:54.224Z,24.60
2018-08-06T20:56:22.464Z,24.50
2018-08-06T20:58:51.084Z,24.40
2018-08-06T21:01:19.350Z,24.30
2018-08-06T21:03:49.145Z,24.20
2018-08-06T21:06:18.753Z,24.10
2018-08-06T21:08:47.952Z,24.10
2018-08-06T21:11:16.407Z,24.00
2018-08-06T21:13:44.708Z,23.90
2018-08-06T21:16:12.903Z,23.90
2018-08-06T21:18:41.368Z,23.80
2018-08-06T21:21:10.445Z,23.70
2018-08-06T21:23:38.659Z,23.70
2018-08-06T21:26:06.960Z,23.60
2018-08-06T21:28:36.798Z,23.50
2018-08-06T21:31:06.327Z,23.50
2018-08-06T21:33:35.014Z,23.40
2018-08-06T21:36:03.226Z,23.40
2018-08-06T21:41:01.183Z,23.20
2018-08-06T21:43:30.111Z,23.30
2018-08-06T21:45:58.403Z,23.20
2018-08-06T21:48:27.159Z,23.10
2018-08-06T21:50:55.440Z,23.10
2018-08-06T21:53:23.661Z,23.00
2018-08-06T21:55:55.960Z,23.00
2018-08-06T21:58:24.830Z,23.00
2018-08-06T22:00:53.679Z,23.00
2018-08-06T22:05:50.758Z,22.90
2018-08-06T22:10:53.836Z,22.90
2018-08-06T22:13:22.089Z,22.80
2018-08-06T22:15:50.408Z,22.80
2018-08-06T22:18:18.647Z,22.80
2018-08-06T22:20:46.982Z,22.80
2018-08-06T22:23:15.460Z,22.70
2018-08-06T22:25:44.046Z,22.70
2018-08-06T22:28:12.835Z,22.70
2018-08-06T22:30:41.964Z,22.60
2018-08-06T22:33:10.224Z,22.60
2018-08-06T22:35:38.483Z,22.60
2018-08-06T22:38:07.446Z,22.60
2018-08-06T22:40:37.025Z,22.50
2018-08-06T22:43:06.183Z,22.50
2018-08-06T22:45:34.589Z,22.40
2018-08-06T22:48:02.985Z,22.40
2018-08-06T22:52:59.937Z,22.60
2018-08-06T22:55:28.193Z,22.70
2018-08-06T22:57:56.413Z,22.60
2018-08-06T23:00:24.586Z,22.50
2018-08-06T23:02:53.260Z,22.30
2018-08-06T23:05:21.518Z,22.20
2018-08-06T23:07:49.863Z,22.10
2018-08-06T23:10:18.859Z,22.10
2018-08-06T23:12:47.061Z,22.10
2018-08-06T23:15:16.542Z,22.10
2018-08-06T23:17:46.125Z,22.00
2018-08-06T23:20:14.328Z,22.00
2018-08-06T23:22:42.969Z,21.90
2018-08-06T23:25:12.889Z,21.90
2018-08-06T23:27:41.500Z,21.90
2018-08-06T23:30:13.638Z,21.80
2018-08-06T23:32:42.145Z,21.80
2018-08-06T23:35:12.539Z,21.70
2018-08-06T23:37:42.912Z,21.70
2018-08-06T23:40:16.304Z,21.70
2018-08-06T23:42:45.458Z,21.60
2018-08-06T23:45:14.899Z,21.60
2018-08-06T23:47:43.166Z,21.60
2018-08-06T23:50:13.065Z,21.50
2018-08-06T23:52:43.301Z,21.50
2018-08-06T23:55:12.927Z,21.40
2018-08-06T23:57:41.391Z,21.40
